createdAt,value
2023-04-06T00:01:24.432Z,100117.97
2023-04-06T00:03:53.386Z,100101.63
2023-04-06T00:06:22.324Z,100086.25
2023-04-06T00:08:51.434Z,100101.69
2023-04-06T00:11:20.313Z,100017.56
2023-04-06T00:13:49.194Z,100101.91
2023-04-06T00:16:18.276Z,100085.56
2023-04-06T00:18:47.981Z,100082.25
2023-04-06T00:21:17.049Z,100117.56
2023-04-06T00:23:46.361Z,100083.09
2023-04-06T00:26:15.143Z,100109.72
2023-04-06T00:28:47.861Z,100109.78
2023-04-06T00:31:16.870Z,100090.91
2023-04-06T00:33:45.692Z,100080.50
2023-04-06T00:36:14.772Z,100097.56
2023-04-06T00:38:43.844Z,100083.00
2023-04-06T00:41:13.245Z,100067.44
2023-04-06T00:43:42.288Z,100087.97
2023-04-06T00:46:11.339Z,100063.00
2023-04-06T00:48:42.466Z,100070.72
2023-04-06T00:51:11.615Z,100074.91
2023-04-06T00:53:40.552Z,100075.78
2023-04-06T00:56:12.766Z,99988.94
2023-04-06T00:58:54.248Z,100082.50
2023-04-06T01:01:23.341Z,100048.84
2023-04-06T01:03:55.089Z,100070.19
2023-04-06T01:06:24.609Z,100063.97
2023-04-06T01:09:03.086Z,100052.75
2023-04-06T01:11:33.365Z,100028.53
2023-04-06T01:14:05.227Z,100061.84
2023-04-06T01:16:49.544Z,100069.56
2023-04-06T01:19:22.780Z,99972.28
2023-04-06T01:21:55.134Z,100008.97
2023-04-06T01:24:47.151Z,100026.94
2023-04-06T01:27:31.575Z,100020.81
2023-04-06T01:30:20.448Z,100041.34
2023-04-06T01:33:12.359Z,100029.22
2023-04-06T01:35:59.461Z,100027.34
2023-04-06T01:38:28.687Z,100025.47
2023-04-06T01:40:57.592Z,100051.06
2023-04-06T01:43:28.744Z,100019.81
2023-04-06T01:46:07.403Z,100031.59
2023-04-06T01:48:39.154Z,100024.56
2023-04-06T01:51:18.741Z,100036.41
2023-04-06T01:53:58.026Z,100032.75
2023-04-06T01:56:38.727Z,100016.09
2023-04-06T01:59:21.906Z,100021.78
2023-04-06T02:01:51.447Z,100051.72
2023-04-06T02:04:20.487Z,100009.91
2023-04-06T02:06:52.150Z,99991.38
2023-04-06T02:09:24.649Z,100013.16
2023-04-06T02:11:53.775Z,100028.88
2023-04-06T02:14:22.606Z,100031.66
2023-04-06T02:16:55.381Z,100020.34
2023-04-06T02:19:24.706Z,100010.59
2023-04-06T02:21:53.526Z,99979.38
2023-04-06T02:24:22.650Z,99998.56
2023-04-06T02:26:51.629Z,99985.47
2023-04-06T02:29:20.647Z,99991.13
2023-04-06T02:31:50.061Z,99975.25
2023-04-06T02:34:19.380Z,99981.34
2023-04-06T02:36:52.077Z,99990.91
2023-04-06T02:39:21.885Z,99984.13
2023-04-06T02:41:51.416Z,99985.44
2023-04-06T02:44:24.172Z,99979.25
2023-04-06T02:46:53.295Z,99987.22
2023-04-06T02:49:23.822Z,99979.75
2023-04-06T02:51:56.416Z,99978.47
2023-04-06T02:54:29.526Z,99972.16
2023-04-06T02:56:58.875Z,99960.53
2023-04-06T02:59:36.712Z,99967.81
2023-04-06T03:02:31.647Z,99939.44
2023-04-06T03:05:09.305Z,99939.25
2023-04-06T03:07:44.500Z,99940.66
2023-04-06T03:10:24.761Z,99935.22
2023-04-06T03:12:54.468Z,99918.78
2023-04-06T03:15:26.403Z,99933.31
2023-04-06T03:18:12.214Z,99920.19
2023-04-06T03:20:45.269Z,99921.81
2023-04-06T03:23:16.303Z,99905.53
2023-04-06T03:25:47.049Z,99915.59
2023-04-06T03:28:19.460Z,99905.38
2023-04-06T03:30:53.769Z,99921.56
2023-04-06T03:33:46.032Z,99914.66
2023-04-06T03:36:21.946Z,99858.66
2023-04-06T03:38:51.163Z,99909.66
2023-04-06T03:41:21.620Z,99868.88
2023-04-06T03:43:58.493Z,99893.53
2023-04-06T03:46:27.765Z,99895.53
2023-04-06T03:48:59.641Z,99895.31
2023-04-06T03:51:29.760Z,99883.50
2023-04-06T03:53:58.582Z,99869.03
2023-04-06T03:56:28.237Z,99904.59
2023-04-06T03:58:57.206Z,99905.72
2023-04-06T04:01:26.577Z,99878.75
2023-04-06T04:03:55.958Z,99884.06
2023-04-06T04:06:25.039Z,99893.59
2023-04-06T04:08:53.968Z,99869.91
2023-04-06T04:11:22.880Z,99894.78
2023-04-06T04:13:57.982Z,99901.59
2023-04-06T04:16:27.175Z,99773.19
2023-04-06T04:18:56.221Z,99877.88
2023-04-06T04:21:25.846Z,99891.91
2023-04-06T04:23:55.065Z,99853.66
2023-04-06T04:26:24.096Z,99876.19
2023-04-06T04:28:55.885Z,99868.97
2023-04-06T04:31:25.197Z,99794.09
2023-04-06T04:33:59.684Z,99836.69
2023-04-06T04:36:32.500Z,99848.34
2023-04-06T04:39:05.255Z,99863.75
2023-04-06T04:41:39.270Z,99853.56
2023-04-06T04:44:11.173Z,99864.72
2023-04-06T04:46:40.657Z,99854.72
2023-04-06T04:49:10.573Z,99781.44
2023-04-06T04:51:40.470Z,99837.81
2023-04-06T04:54:22.323Z,99830.94
2023-04-06T04:56:52.035Z,99823.28
2023-04-06T04:59:26.753Z,99829.75
2023-04-06T05:02:01.914Z,99844.06
2023-04-06T05:04:40.844Z,99823.78
2023-04-06T05:07:14.077Z,99768.47
2023-04-06T05:09:44.096Z,99811.97
2023-04-06T05:12:13.866Z,99839.38
2023-04-06T05:14:52.994Z,99809.63
2023-04-06T05:17:23.730Z,99808.53
2023-04-06T05:19:53.174Z,99804.47
2023-04-06T05:22:25.941Z,99790.72
2023-04-06T05:25:05.446Z,99810.31
2023-04-06T05:27:35.135Z,99736.75
2023-04-06T05:30:09.989Z,99783.63
2023-04-06T05:32:46.149Z,99774.69
2023-04-06T05:35:16.287Z,99771.78
2023-04-06T05:37:48.688Z,99787.31
2023-04-06T05:40:18.426Z,99791.59
2023-04-06T05:42:48.689Z,99789.03
2023-04-06T05:45:20.514Z,99774.28
2023-04-06T05:47:56.677Z,99794.56
2023-04-06T05:50:29.898Z,99766.59
2023-04-06T05:52:59.698Z,99756.44
2023-04-06T05:55:34.078Z,99777.75
2023-04-06T05:58:19.042Z,99773.66
2023-04-06T06:00:49.113Z,99761.69
2023-04-06T06:03:21.196Z,99754.03
2023-04-06T06:05:54.502Z,99746.78
2023-04-06T06:08:32.038Z,99742.88
2023-04-06T06:11:04.279Z,99768.66
2023-04-06T06:13:33.094Z,99754.34
2023-04-06T06:16:06.677Z,99750.81
2023-04-06T06:18:39.050Z,99765.31
2023-04-06T06:21:09.641Z,99748.63
2023-04-06T06:23:40.400Z,99688.31
2023-04-06T06:26:09.448Z,99698.22
2023-04-06T06:28:38.414Z,99740.69
2023-04-06T06:31:07.041Z,99749.13
2023-04-06T06:33:35.858Z,99748.66
2023-04-06T06:36:05.187Z,99750.84
2023-04-06T06:38:34.129Z,99736.91
2023-04-06T06:41:02.908Z,99742.41
2023-04-06T06:43:34.869Z,99680.69
2023-04-06T06:46:08.753Z,99733.38
2023-04-06T06:48:37.683Z,99731.53
2023-04-06T06:51:06.509Z,99734.25
2023-04-06T06:53:35.500Z,99698.19
2023-04-06T06:56:04.444Z,99638.47
2023-04-06T06:58:33.693Z,99725.38
2023-04-06T07:01:02.865Z,99696.97
2023-04-06T07:03:33.474Z,99711.34
2023-04-06T07:06:02.192Z,99735.38
2023-04-06T07:08:31.081Z,99711.63
2023-04-06T07:11:00.189Z,99708.84
2023-04-06T07:13:29.361Z,99695.66
2023-04-06T07:16:00.507Z,99687.94
2023-04-06T07:18:30.537Z,99697.00
2023-04-06T07:21:00.685Z,99679.81
2023-04-06T07:23:29.521Z,99677.75
2023-04-06T07:25:58.274Z,99679.44
2023-04-06T07:28:27.163Z,99674.22
2023-04-06T07:30:56.885Z,99675.34
2023-04-06T07:33:25.763Z,99680.69
2023-04-06T07:35:54.947Z,99661.09
2023-04-06T07:38:23.773Z,99679.00
2023-04-06T07:40:53.385Z,99663.78
2023-04-06T07:43:22.189Z,99674.22
2023-04-06T07:45:51.195Z,99614.38
2023-04-06T07:48:20.209Z,99667.44
2023-04-06T07:50:49.043Z,99642.09
2023-04-06T07:53:18.150Z,99657.59
2023-04-06T07:55:48.322Z,99673.22
2023-04-06T07:58:17.174Z,99652.78
2023-04-06T08:00:46.115Z,99665.88
2023-04-06T08:03:15.358Z,99651.38
2023-04-06T08:05:44.652Z,99670.41
2023-04-06T08:08:16.048Z,99662.06
2023-04-06T08:10:45.008Z,99632.53
2023-04-06T08:13:13.886Z,99635.47
2023-04-06T08:15:42.605Z,99592.44
2023-04-06T08:18:11.972Z,99642.97
2023-04-06T08:20:42.079Z,99627.19
2023-04-06T08:23:11.205Z,99640.00
2023-04-06T08:25:40.140Z,99617.03
2023-04-06T08:28:10.463Z,99624.22
2023-04-06T08:30:42.286Z,99621.25
2023-04-06T08:33:11.893Z,99627.09
2023-04-06T08:35:40.823Z,99615.00
2023-04-06T08:38:09.813Z,99623.44
2023-04-06T08:40:45.047Z,99614.00
2023-04-06T08:43:16.142Z,99598.47
2023-04-06T08:45:45.072Z,99600.28
2023-04-06T08:48:14.089Z,99603.06
2023-04-06T08:50:44.117Z,99607.44
2023-04-06T08:53:14.167Z,99585.75
2023-04-06T08:55:45.584Z,99577.72
2023-04-06T08:58:24.115Z,99515.72
2023-04-06T09:01:01.382Z,99569.44
2023-04-06T09:03:33.395Z,99565.59
2023-04-06T09:06:02.739Z,99551.25
2023-04-06T09:08:31.663Z,99570.09
2023-04-06T09:11:00.590Z,99551.53
2023-04-06T09:13:29.662Z,99536.59
2023-04-06T09:16:03.082Z,99545.28
2023-04-06T09:18:33.669Z,99542.06
2023-04-06T09:21:07.518Z,99548.25
2023-04-06T09:23:36.876Z,99551.38
2023-04-06T09:26:32.020Z,99556.59
2023-04-06T09:29:02.943Z,99544.78
2023-04-06T09:31:34.939Z,99532.44
2023-04-06T09:34:04.208Z,99555.59
2023-04-06T09:36:37.453Z,99531.56
2023-04-06T09:39:06.979Z,99504.34
2023-04-06T09:41:37.953Z,99530.06
2023-04-06T09:44:12.109Z,99539.22
2023-04-06T09:46:58.981Z,99534.56
2023-04-06T09:49:35.392Z,99512.31
2023-04-06T09:52:06.404Z,99533.97
2023-04-06T09:54:37.575Z,99490.91
2023-04-06T09:57:27.845Z,99541.00
2023-04-06T10:00:13.148Z,99509.28
2023-04-06T10:03:12.672Z,99538.41
2023-04-06T10:06:00.153Z,99503.81
2023-04-06T10:08:32.752Z,99503.25
2023-04-06T10:11:02.566Z,99520.19
2023-04-06T10:13:31.529Z,99528.94
2023-04-06T10:16:03.145Z,99509.50
2023-04-06T10:18:32.570Z,99523.69
2023-04-06T10:21:10.998Z,99524.69
2023-04-06T10:23:49.792Z,99511.63
2023-04-06T10:26:22.552Z,99518.22
2023-04-06T10:28:54.087Z,99530.06
2023-04-06T10:31:30.424Z,99497.13
2023-04-06T10:34:02.646Z,99497.69
2023-04-06T10:36:36.195Z,99484.19
2023-04-06T10:39:07.485Z,99475.75
2023-04-06T10:41:48.139Z,99389.13
2023-04-06T10:44:23.483Z,99479.69
2023-04-06T10:47:03.296Z,99456.88
2023-04-06T10:49:32.730Z,99485.31
2023-04-06T10:52:01.639Z,99476.31
2023-04-06T10:54:31.223Z,99470.69
2023-04-06T10:57:02.785Z,99452.84
2023-04-06T10:59:32.180Z,99452.97
2023-04-06T11:02:01.128Z,99455.78
2023-04-06T11:04:30.534Z,99475.47
2023-04-06T11:07:00.036Z,99467.16
2023-04-06T11:09:30.532Z,99439.75
2023-04-06T11:11:59.951Z,99465.59
2023-04-06T11:14:29.306Z,99445.19
2023-04-06T11:16:58.312Z,99451.69
2023-04-06T11:19:27.996Z,99458.28
2023-04-06T11:21:59.827Z,99438.75
2023-04-06T11:24:28.866Z,99432.25
2023-04-06T11:27:02.855Z,99376.63
2023-04-06T11:29:34.732Z,99439.56
2023-04-06T11:32:06.310Z,99431.44
2023-04-06T11:34:41.331Z,99417.25
2023-04-06T11:37:12.301Z,99427.94
2023-04-06T11:39:43.110Z,99424.81
2023-04-06T11:42:12.054Z,99426.50
2023-04-06T11:44:52.831Z,99421.75
2023-04-06T11:47:23.869Z,99427.66
2023-04-06T11:49:52.869Z,99431.47
2023-04-06T11:52:26.751Z,99433.00
2023-04-06T11:54:58.695Z,99393.63
2023-04-06T11:57:27.300Z,99378.03
2023-04-06T11:59:58.122Z,99383.09
2023-04-06T12:02:27.056Z,99400.94
2023-04-06T12:04:55.967Z,99412.78
2023-04-06T12:07:24.873Z,99408.41
2023-04-06T12:09:53.749Z,99396.88
2023-04-06T12:12:23.128Z,99389.13
2023-04-06T12:14:51.977Z,99347.97
2023-04-06T12:17:22.790Z,99406.72
2023-04-06T12:19:51.949Z,99383.38
2023-04-06T12:22:20.989Z,99396.59
2023-04-06T12:24:49.989Z,99379.31
2023-04-06T12:27:18.817Z,99369.59
2023-04-06T12:29:47.794Z,99403.75
2023-04-06T12:32:17.332Z,99388.81
2023-04-06T12:34:46.376Z,99371.63
2023-04-06T12:37:15.217Z,99360.66
2023-04-06T12:39:46.486Z,99374.41
2023-04-06T12:42:15.835Z,99375.91
2023-04-06T12:44:45.225Z,99370.84
2023-04-06T12:47:14.782Z,99373.34
2023-04-06T12:49:44.712Z,99330.97
2023-04-06T12:52:13.722Z,99357.06
2023-04-06T12:54:44.379Z,99364.09
2023-04-06T12:57:13.687Z,99365.63
2023-04-06T12:59:48.174Z,99370.19
2023-04-06T13:02:17.730Z,99353.22
2023-04-06T13:04:46.587Z,99347.94
2023-04-06T13:07:16.034Z,99279.94
2023-04-06T13:09:44.992Z,99353.72
2023-04-06T13:12:13.915Z,99267.38
2023-04-06T13:14:42.947Z,99323.06
2023-04-06T13:17:12.739Z,99327.31
2023-04-06T13:19:42.676Z,99356.31
2023-04-06T13:22:11.878Z,99327.50
2023-04-06T13:24:40.777Z,99334.91
2023-04-06T13:27:09.681Z,99348.56
2023-04-06T13:29:39.312Z,99322.03
2023-04-06T13:32:12.265Z,99325.69
2023-04-06T13:34:42.392Z,99335.88
2023-04-06T13:37:11.923Z,99332.66
2023-04-06T13:39:43.819Z,99312.47
2023-04-06T13:42:12.674Z,99319.97
2023-04-06T13:44:41.788Z,99316.31
2023-04-06T13:47:11.277Z,99337.66
2023-04-06T13:49:40.016Z,99318.91
2023-04-06T13:52:11.727Z,99314.53
2023-04-06T13:54:41.366Z,99317.28
2023-04-06T13:57:10.679Z,99313.13
2023-04-06T13:59:40.605Z,99251.16
2023-04-06T14:02:12.645Z,99304.31
2023-04-06T14:04:41.959Z,99315.44
2023-04-06T14:07:10.790Z,99308.50
2023-04-06T14:09:39.929Z,99312.53
2023-04-06T14:12:09.684Z,99262.94
2023-04-06T14:14:39.020Z,99321.16
2023-04-06T14:17:08.131Z,99318.53
2023-04-06T14:19:37.888Z,99329.88
2023-04-06T14:22:06.788Z,99281.28
2023-04-06T14:24:39.360Z,99333.91
2023-04-06T14:27:08.911Z,99315.91
2023-04-06T14:29:39.072Z,99310.66
2023-04-06T14:32:08.564Z,99317.41
2023-04-06T14:34:40.229Z,99320.47
2023-04-06T14:37:09.434Z,99329.91
2023-04-06T14:39:39.485Z,99316.53
2023-04-06T14:42:08.495Z,99273.03
2023-04-06T14:44:38.631Z,99327.03
2023-04-06T14:47:07.730Z,99304.84
2023-04-06T14:49:37.202Z,99292.09
2023-04-06T14:52:06.614Z,99324.56
2023-04-06T14:54:35.494Z,99251.31
2023-04-06T14:57:05.432Z,99295.38
2023-04-06T14:59:39.939Z,99308.38
2023-04-06T15:02:09.502Z,99325.63
2023-04-06T15:04:38.668Z,99302.03
2023-04-06T15:07:07.640Z,99297.22
2023-04-06T15:09:37.821Z,99309.69
2023-04-06T15:12:07.571Z,99322.91
2023-04-06T15:14:36.546Z,99299.53
2023-04-06T15:17:05.448Z,99311.88
2023-04-06T15:19:34.146Z,99319.47
2023-04-06T15:22:02.912Z,99302.88
2023-04-06T15:24:31.960Z,99219.88
2023-04-06T15:27:00.747Z,99320.13
2023-04-06T15:29:29.603Z,99310.50
2023-04-06T15:31:58.380Z,99324.31
2023-04-06T15:34:27.421Z,99282.31
2023-04-06T15:36:56.591Z,99307.53
2023-04-06T15:39:26.164Z,99242.53
2023-04-06T15:41:55.288Z,99288.97
2023-04-06T15:44:24.350Z,99288.03
2023-04-06T15:46:54.243Z,99288.88
2023-04-06T15:49:23.067Z,99306.41
2023-04-06T15:51:52.989Z,99284.19
2023-04-06T15:54:22.132Z,99285.34
2023-04-06T15:56:51.758Z,99308.25
2023-04-06T15:59:21.413Z,99283.28
2023-04-06T16:01:50.458Z,99269.41
2023-04-06T16:04:19.311Z,99285.22
2023-04-06T16:06:48.344Z,99269.94
2023-04-06T16:09:17.166Z,99286.28
2023-04-06T16:11:46.205Z,99278.69
2023-04-06T16:14:14.997Z,99215.00
2023-04-06T16:16:44.507Z,99277.78
2023-04-06T16:19:16.066Z,99248.16
2023-04-06T16:21:44.847Z,99260.97
2023-04-06T16:24:13.524Z,99272.75
2023-04-06T16:26:42.674Z,99260.88
2023-04-06T16:29:11.873Z,99290.19
2023-04-06T16:31:40.852Z,99264.31
2023-04-06T16:34:09.565Z,99280.72
2023-04-06T16:36:41.630Z,99262.59
2023-04-06T16:39:10.967Z,99281.78
2023-04-06T16:41:40.499Z,99253.13
2023-04-06T16:44:09.959Z,99277.75
2023-04-06T16:46:40.297Z,99273.25
2023-04-06T16:49:09.781Z,99239.19
2023-04-06T16:51:38.867Z,99287.91
2023-04-06T16:54:07.640Z,99262.72
2023-04-06T16:56:36.503Z,99249.88
2023-04-06T16:59:09.540Z,99281.78
2023-04-06T17:01:39.108Z,99259.63
2023-04-06T17:04:08.582Z,99238.63
2023-04-06T17:06:37.672Z,99263.56
2023-04-06T17:09:07.036Z,99275.75
2023-04-06T17:11:46.198Z,99283.81
2023-04-06T17:14:15.824Z,99245.31
2023-04-06T17:16:44.963Z,99259.66
2023-04-06T17:19:14.036Z,99270.63
2023-04-06T17:21:43.205Z,99256.41
2023-04-06T17:24:12.780Z,99234.91
2023-04-06T17:26:42.374Z,99256.69
2023-04-06T17:29:11.672Z,99256.41
2023-04-06T17:31:40.505Z,99266.22
2023-04-06T17:34:11.025Z,99263.47
2023-04-06T17:36:39.881Z,99283.00
2023-04-06T17:39:09.374Z,99279.78
2023-04-06T17:41:39.192Z,99277.63
2023-04-06T17:44:08.404Z,99278.84
2023-04-06T17:46:37.434Z,99291.91
2023-04-06T17:49:09.790Z,99300.22
2023-04-06T17:51:39.180Z,99310.41
2023-04-06T17:54:11.476Z,99281.94
2023-04-06T17:56:40.472Z,99301.38
2023-04-06T17:59:12.264Z,99285.53
2023-04-06T18:01:42.082Z,99300.69
2023-04-06T18:04:11.313Z,99319.66
2023-04-06T18:06:41.422Z,99291.72
2023-04-06T18:09:10.849Z,99320.59
2023-04-06T18:11:39.679Z,99292.81
2023-04-06T18:14:11.890Z,99302.63
2023-04-06T18:16:44.114Z,99278.81
2023-04-06T18:19:13.947Z,99296.81
2023-04-06T18:21:43.550Z,99311.34
2023-04-06T18:24:18.741Z,99337.56
2023-04-06T18:26:53.045Z,99339.84
2023-04-06T18:29:22.010Z,99265.94
2023-04-06T18:31:55.777Z,99328.03
2023-04-06T18:34:24.735Z,99314.00
2023-04-06T18:36:54.103Z,99304.00
2023-04-06T18:39:22.862Z,99323.22
2023-04-06T18:41:51.893Z,99321.09
2023-04-06T18:44:21.313Z,99355.81
2023-04-06T18:46:51.043Z,99338.25
2023-04-06T18:49:21.433Z,99337.94
2023-04-06T18:51:50.316Z,99359.69
2023-04-06T18:54:18.952Z,99341.38
2023-04-06T18:56:49.903Z,99322.13
2023-04-06T18:59:21.165Z,99325.03
2023-04-06T19:01:55.358Z,99357.81
2023-04-06T19:04:24.497Z,99354.84
2023-04-06T19:06:53.639Z,99358.28
2023-04-06T19:09:22.975Z,99367.38
2023-04-06T19:11:51.765Z,99373.06
2023-04-06T19:14:20.571Z,99379.97
2023-04-06T19:16:55.795Z,99396.50
2023-04-06T19:19:27.694Z,99383.06
2023-04-06T19:21:58.195Z,99390.25
2023-04-06T19:24:27.596Z,99408.06
2023-04-06T19:26:57.917Z,99406.19
2023-04-06T19:29:26.933Z,99444.34
2023-04-06T19:31:56.727Z,99428.09
2023-04-06T19:34:25.636Z,99343.66
2023-04-06T19:36:54.715Z,99444.28
2023-04-06T19:39:23.597Z,99425.06
2023-04-06T19:41:52.470Z,99431.50
2023-04-06T19:44:21.951Z,99445.72
2023-04-06T19:46:51.279Z,99423.16
2023-04-06T19:49:20.315Z,99428.84
2023-04-06T19:51:50.115Z,99419.03
2023-04-06T19:54:19.223Z,99435.69
2023-04-06T19:56:48.985Z,99408.72
2023-04-06T19:59:18.615Z,99451.31
2023-04-06T20:01:47.686Z,99417.19
2023-04-06T20:04:16.581Z,99435.22
2023-04-06T20:06:45.694Z,99428.13
2023-04-06T20:09:16.434Z,99467.19
2023-04-06T20:11:45.579Z,99447.78
2023-04-06T20:14:14.774Z,99378.38
2023-04-06T20:16:43.667Z,99441.03
2023-04-06T20:19:12.562Z,99428.13
2023-04-06T20:21:41.758Z,99454.94
2023-04-06T20:24:12.334Z,99490.47
2023-04-06T20:26:41.167Z,99457.97
2023-04-06T20:29:09.889Z,99469.28
2023-04-06T20:31:38.706Z,99505.84
2023-04-06T20:34:07.603Z,99464.66
2023-04-06T20:36:36.609Z,99481.00
2023-04-06T20:39:05.607Z,99457.34
2023-04-06T20:41:34.460Z,99475.00
2023-04-06T20:44:03.408Z,99395.53
2023-04-06T20:46:32.171Z,99413.09
2023-04-06T20:49:01.265Z,99410.72
2023-04-06T20:51:30.332Z,99499.63
2023-04-06T20:53:59.418Z,99506.72
2023-04-06T20:56:30.797Z,99486.56
2023-04-06T21:00:15.491Z,99485.25
2023-04-06T21:02:47.234Z,99480.22
2023-04-06T21:05:18.820Z,99496.81
2023-04-06T21:07:47.481Z,99525.22
2023-04-06T21:10:16.359Z,99486.00
2023-04-06T21:12:45.214Z,99519.44
2023-04-06T21:15:14.059Z,99529.22
2023-04-06T21:17:42.885Z,99476.03
2023-04-06T21:20:12.097Z,99453.34
2023-04-06T21:22:40.982Z,99509.91
2023-04-06T21:25:10.242Z,99519.50
2023-04-06T21:27:39.100Z,99521.38
2023-04-06T21:30:08.524Z,99523.28
2023-04-06T21:32:37.925Z,99545.25
2023-04-06T21:35:07.306Z,99542.47
2023-04-06T21:37:36.308Z,99434.09
2023-04-06T21:40:06.559Z,99538.50
2023-04-06T21:42:35.500Z,99554.63
2023-04-06T21:45:04.407Z,99561.81
2023-04-06T21:47:36.733Z,99565.34
2023-04-06T21:50:06.579Z,99549.78
2023-04-06T21:52:35.653Z,99532.09
2023-04-06T21:55:06.147Z,99580.16
2023-04-06T21:57:35.024Z,99555.97
2023-04-06T22:00:10.554Z,99567.19
2023-04-06T22:02:46.966Z,99507.88
2023-04-06T22:05:16.433Z,99579.56
2023-04-06T22:07:47.327Z,99583.84
2023-04-06T22:10:16.421Z,99607.34
2023-04-06T22:12:46.191Z,99589.41
2023-04-06T22:15:15.274Z,99596.41
2023-04-06T22:20:10.990Z,99615.69
2023-04-06T22:22:40.593Z,99613.16
2023-04-06T22:25:10.046Z,99547.47
2023-04-06T22:27:38.739Z,99616.84
2023-04-06T22:30:09.227Z,99538.06
2023-04-06T22:32:38.421Z,99621.28
2023-04-06T22:35:08.665Z,99605.22
2023-04-06T22:37:37.704Z,99626.50
2023-04-06T22:40:07.286Z,99645.50
2023-04-06T22:42:35.929Z,99637.06
2023-04-06T22:45:05.437Z,99639.72
2023-04-06T22:47:34.452Z,99624.66
2023-04-06T22:50:03.643Z,99635.25
2023-04-06T22:52:32.590Z,99632.75
2023-04-06T22:55:02.386Z,99586.81
2023-04-06T22:57:31.391Z,99656.22
2023-04-06T23:00:00.206Z,99628.03
2023-04-06T23:02:29.159Z,99666.06
2023-04-06T23:04:58.207Z,99655.63
2023-04-06T23:07:26.990Z,99646.06
2023-04-06T23:09:55.846Z,99657.34
2023-04-06T23:12:24.790Z,99659.97
2023-04-06T23:14:53.370Z,99669.94
2023-04-06T23:17:22.650Z,99711.66
2023-04-06T23:19:52.237Z,99678.47
2023-04-06T23:22:21.246Z,99708.66
2023-04-06T23:24:51.056Z,99715.72
2023-04-06T23:27:20.052Z,99686.53
2023-04-06T23:29:48.928Z,99699.78
2023-04-06T23:32:17.756Z,99632.81
2023-04-06T23:34:49.409Z,99721.28
2023-04-06T23:37:18.752Z,99704.22
2023-04-06T23:39:49.150Z,99726.56
2023-04-06T23:42:21.213Z,99730.31
2023-04-06T23:44:58.227Z,99647.34
2023-04-06T23:47:28.000Z,99683.97
2023-04-06T23:49:57.145Z,99741.19
2023-04-06T23:52:26.423Z,99736.34
2023-04-06T23:54:55.248Z,99751.03
2023-04-06T23:57:27.452Z,99739.09
2023-04-06T23:59:59.549Z,99752.19
